Airfield :
LOGIN :

Register | Disclaimer

   EN    FR    IT 

 










Legend :    VFR   Marginal VFR   IFR   Intensive IFR   Very Intensive IFR
Visi :
Ceiling :
>= 8 km
>= 3000ft
5 to 8 km
1000 to 3000 ft
1500m to 5 km
500 to 1000 ft
800 to 1500m
200 to 500 ft
< 800m
< 200 ft
Symbols :   Thunderstorms  Fog  Heavy snow  Heavy precipitations  Wind > 20 kt
SIGMETs :     Misc.  Thunderstorms  Icing  Turbulence  Mountain Waves  Volcanic Ashes







- Airport Elevation : 144 ft
- IATA code : PGF
- Download approach charts


LFMP - Perpignan

CURRENT METAR :
  • 150030Z AUTO 33005KT 290V020 9999 RA SCT031 BKN038 BKN047 09/06 Q1009

EXPIRED METARs :
  • 150000Z AUTO 24005KT 9999 BKN070 BKN082 09/05 Q1008
  • 142330Z AUTO 25005KT 9999 SCT070 08/05 Q1009
  • 142300Z AUTO 22005KT 9999 BKN076 09/05 Q1009
  • 142230Z AUTO 23003KT 9999 BKN054 09/05 Q1009
  • 142200Z AUTO VRB03KT 9999 OVC052 09/06 Q1009

TAF TAF LFMP
Valid from the 14 at 15:00 until the 15 at 15:00 UTC


141400Z 1415/1515 VRB05KT 9999 SCT050 BKN090
BECMG 1503/1506 31015KT
TEMPO 1504/1507 RA BKN050
ATIS : +33 4 68 63 75 12
No reported NOTAMs for that airfield.
3 SIGMETs reported for the Marseille FIR (LFMM) :
 
Severe mountain waves
LFMM SIGMET 22 VALID 142300/150300 LFPW
LFMM MARSEILLE FIR/UIR SEV MTW FCST E OF E00845 SFC/FL270 STNR WKN=
Severe turbulence
LFMM SIGMET 21 VALID 142300/150300 LFPW
LFMM MARSEILLE FIR/UIR SEV TURB FCST WI N4630 E00515 - N4630 E00700 - N4400 E00700 - N4345 E00630 - N4630 E00515 SFC/FL130 STNR NC=
Severe turbulence
LFMM SIGMET 20 VALID 142300/150300 LFPW
LFMM MARSEILLE FIR/UIR SEV TURB FCST N OF N4415 FL170/280 STNR WKN=



MET'MAP, your aeronautical weather chart ! - Copyright ORBIFLY December 2007 - Disclaimer

ORBIFLY MET'MAP TEAM :

Programming & Development : Alexandra Zaïnal
Concept & Development : Baudouin d'Aumeries
Co-Development & Prog : Marc-Olivier Méhu
Technical & hardware support : Manuel Goepfert

Contact : metmap@orbifly.com




SOURCES & CREDITS :

   NOAA